sensor_id;sensor_type;location;lat;lon;timestamp;pressure;altitude;pressure_sealevel;temperature;humidity
70015;BME280;57358;51.094;6.760;2022-11-12T00:00:51;102655.66;;;4.78;100.00
70015;BME280;57358;51.094;6.760;2022-11-12T00:03:18;102695.63;;;4.97;100.00
70015;BME280;57358;51.094;6.760;2022-11-12T00:05:45;102588.75;;;4.34;100.00
70015;BME280;57358;51.094;6.760;2022-11-12T00:08:12;102661.69;;;4.64;100.00
70015;BME280;57358;51.094;6.760;2022-11-12T00:10:38;102509.72;;;3.83;100.00
70015;BME280;57358;51.094;6.760;2022-11-12T00:13:05;102740.75;;;5.09;100.00
70015;BME280;57358;51.094;6.760;2022-11-12T00:15:31;102735.50;;;5.01;100.00
70015;BME280;57358;51.094;6.760;2022-11-12T00:17:58;102706.81;;;4.78;100.00
70015;BME280;57358;51.094;6.760;2022-11-12T00:20:24;102691.13;;;4.59;100.00
70015;BME280;57358;51.094;6.760;2022-11-12T00:22:51;102687.63;;;4.56;100.00
70015;BME280;57358;51.094;6.760;2022-11-12T00:25:17;102644.13;;;4.19;100.00
70015;BME280;57358;51.094;6.760;2022-11-12T00:27:44;102616.28;;;3.98;100.00
70015;BME280;57358;51.094;6.760;2022-11-12T00:30:10;102703.13;;;4.36;100.00
70015;BME280;57358;51.094;6.760;2022-11-12T00:32:37;102696.19;;;4.32;100.00
70015;BME280;57358;51.094;6.760;2022-11-12T00:35:04;102737.91;;;4.56;100.00
70015;BME280;57358;51.094;6.760;2022-11-12T00:37:36;102736.19;;;4.55;100.00
70015;BME280;57358;51.094;6.760;2022-11-12T00:40:03;102722.19;;;4.38;100.00
70015;BME280;57358;51.094;6.760;2022-11-12T00:42:29;102509.22;;;3.09;100.00
70015;BME280;57358;51.094;6.760;2022-11-12T00:44:56;102600.47;;;3.63;100.00
70015;BME280;57358;51.094;6.760;2022-11-12T00:47:22;102670.75;;;3.86;100.00
70015;BME280;57358;51.094;6.760;2022-11-12T00:49:48;102706.50;;;4.24;100.00
70015;BME280;57358;51.094;6.760;2022-11-12T00:52:15;102677.78;;;4.01;100.00
70015;BME280;57358;51.094;6.760;2022-11-12T00:54:41;102752.63;;;4.50;100.00
70015;BME280;57358;51.094;6.760;2022-11-12T00:57:08;102711.69;;;4.23;100.00
70015;BME280;57358;51.094;6.760;2022-11-12T00:59:34;102692.53;;;4.05;100.00
70015;BME280;57358;51.094;6.760;2022-11-12T01:02:00;102740.31;;;4.29;100.00
70015;BME280;57358;51.094;6.760;2022-11-12T01:04:27;102735.09;;;4.24;100.00
70015;BME280;57358;51.094;6.760;2022-11-12T01:06:53;102741.28;;;4.42;100.00
70015;BME280;57358;51.094;6.760;2022-11-12T01:09:20;102721.28;;;4.30;100.00
70015;BME280;57358;51.094;6.760;2022-11-12T01:11:46;102697.00;;;4.23;100.00
70015;BME280;57358;51.094;6.760;2022-11-12T01:14:13;102697.91;;;4.31;100.00
70015;BME280;57358;51.094;6.760;2022-11-12T01:16:39;102704.91;;;4.43;100.00
70015;BME280;57358;51.094;6.760;2022-11-12T01:19:10;102722.28;;;4.52;100.00
70015;BME280;57358;51.094;6.760;2022-11-12T01:21:39;102790.13;;;4.90;100.00
70015;BME280;57358;51.094;6.760;2022-11-12T01:24:06;102527.63;;;3.42;100.00
70015;BME280;57358;51.094;6.760;2022-11-12T01:26:33;102795.38;;;4.99;100.00
70015;BME280;57358;51.094;6.760;2022-11-12T01:29:00;102765.75;;;4.74;100.00
70015;BME280;57358;51.094;6.760;2022-11-12T01:31:32;102726.63;;;4.59;100.00
70015;BME280;57358;51.094;6.760;2022-11-12T01:34:01;102724.94;;;4.64;100.00
70015;BME280;57358;51.094;6.760;2022-11-12T01:36:32;102753.66;;;4.79;100.00
70015;BME280;57358;51.094;6.760;2022-11-12T01:38:59;102792.81;;;5.15;100.00
70015;BME280;57358;51.094;6.760;2022-11-12T01:41:31;102644.06;;;4.10;100.00
70015;BME280;57358;51.094;6.760;2022-11-12T01:44:22;102812.84;;;5.25;100.00
70015;BME280;57358;51.094;6.760;2022-11-12T01:49:57;102799.84;;;5.30;100.00
70015;BME280;57358;51.094;6.760;2022-11-12T01:52:30;102783.31;;;5.22;100.00
70015;BME280;57358;51.094;6.760;2022-11-12T01:55:09;102790.25;;;5.19;100.00
70015;BME280;57358;51.094;6.760;2022-11-12T01:57:42;102748.50;;;4.93;100.00
70015;BME280;57358;51.094;6.760;2022-11-12T02:00:12;102695.44;;;4.56;100.00
70015;BME280;57358;51.094;6.760;2022-11-12T02:02:39;102813.69;;;5.29;100.00
70015;BME280;57358;51.094;6.760;2022-11-12T02:05:08;102687.59;;;4.48;100.00
70015;BME280;57358;51.094;6.760;2022-11-12T02:07:37;102781.53;;;5.08;100.00
70015;BME280;57358;51.094;6.760;2022-11-12T02:10:05;102758.91;;;4.96;100.00
70015;BME280;57358;51.094;6.760;2022-11-12T02:12:32;102791.03;;;5.00;100.00
70015;BME280;57358;51.094;6.760;2022-11-12T02:15:18;102762.28;;;4.77;100.00
70015;BME280;57358;51.094;6.760;2022-11-12T02:17:44;102804.09;;;5.14;100.00
70015;BME280;57358;51.094;6.760;2022-11-12T02:20:12;102772.78;;;4.89;100.00
70015;BME280;57358;51.094;6.760;2022-11-12T02:22:39;102807.59;;;5.19;100.00
70015;BME280;57358;51.094;6.760;2022-11-12T02:25:06;102797.13;;;5.05;100.00
70015;BME280;57358;51.094;6.760;2022-11-12T02:27:34;102789.34;;;5.05;100.00
70015;BME280;57358;51.094;6.760;2022-11-12T02:30:01;102809.38;;;5.26;100.00
70015;BME280;57358;51.094;6.760;2022-11-12T02:32:27;102733.69;;;4.80;100.00
70015;BME280;57358;51.094;6.760;2022-11-12T02:34:53;102763.28;;;4.97;100.00
70015;BME280;57358;51.094;6.760;2022-11-12T02:37:20;102748.47;;;4.90;100.00
70015;BME280;57358;51.094;6.760;2022-11-12T02:39:46;102807.59;;;5.22;100.00
70015;BME280;57358;51.094;6.760;2022-11-12T02:42:12;102799.75;;;5.08;100.00
70015;BME280;57358;51.094;6.760;2022-11-12T02:44:39;102830.09;;;5.08;100.00
70015;BME280;57358;51.094;6.760;2022-11-12T02:47:06;102768.47;;;4.99;100.00
70015;BME280;57358;51.094;6.760;2022-11-12T02:49:32;102718.06;;;4.78;100.00
70015;BME280;57358;51.094;6.760;2022-11-12T02:51:58;102821.56;;;5.38;100.00
70015;BME280;57358;51.094;6.760;2022-11-12T02:54:25;102778.06;;;5.12;100.00
70015;BME280;57358;51.094;6.760;2022-11-12T02:56:51;102778.16;;;5.29;100.00
70015;BME280;57358;51.094;6.760;2022-11-12T02:59:17;102666.00;;;4.60;100.00
70015;BME280;57358;51.094;6.760;2022-11-12T03:01:44;102758.06;;;5.00;100.00
70015;BME280;57358;51.094;6.760;2022-11-12T03:04:10;102805.03;;;5.27;100.00
70015;BME280;57358;51.094;6.760;2022-11-12T03:06:36;102746.75;;;4.91;100.00
70015;BME280;57358;51.094;6.760;2022-11-12T03:09:03;102791.97;;;5.17;100.00
70015;BME280;57358;51.094;6.760;2022-11-12T03:11:29;102750.16;;;4.80;100.00
70015;BME280;57358;51.094;6.760;2022-11-12T03:13:56;102794.56;;;5.16;100.00
70015;BME280;57358;51.094;6.760;2022-11-12T03:16:22;102759.75;;;4.91;100.00
70015;BME280;57358;51.094;6.760;2022-11-12T03:18:48;102722.41;;;4.72;100.00
70015;BME280;57358;51.094;6.760;2022-11-12T03:21:15;102742.41;;;4.84;100.00
70015;BME280;57358;51.094;6.760;2022-11-12T03:23:41;102716.31;;;4.71;100.00
70015;BME280;57358;51.094;6.760;2022-11-12T03:26:07;102753.69;;;4.90;100.00
70015;BME280;57358;51.094;6.760;2022-11-12T03:28:34;102709.31;;;4.58;100.00
70015;BME280;57358;51.094;6.760;2022-11-12T03:31:00;102720.63;;;4.71;100.00
70015;BME280;57358;51.094;6.760;2022-11-12T03:33:27;102721.50;;;4.65;100.00
70015;BME280;57358;51.094;6.760;2022-11-12T03:35:53;102733.69;;;4.78;100.00
70015;BME280;57358;51.094;6.760;2022-11-12T03:38:20;102725.84;;;4.71;100.00
70015;BME280;57358;51.094;6.760;2022-11-12T03:40:47;102768.47;;;4.96;100.00
70015;BME280;57358;51.094;6.760;2022-11-12T03:43:14;102721.50;;;4.65;100.00
70015;BME280;57358;51.094;6.760;2022-11-12T03:45:40;102763.19;;;4.82;100.00
70015;BME280;57358;51.094;6.760;2022-11-12T03:48:07;102540.66;;;3.48;100.00
70015;BME280;57358;51.094;6.760;2022-11-12T03:50:33;102796.13;;;4.78;100.00
70015;BME280;57358;51.094;6.760;2022-11-12T03:52:59;102762.28;;;4.77;100.00
70015;BME280;57358;51.094;6.760;2022-11-12T03:55:27;102720.47;;;4.40;100.00
70015;BME280;57358;51.094;6.760;2022-11-12T03:57:55;102757.91;;;4.68;100.00
70015;BME280;57358;51.094;6.760;2022-11-12T04:00:23;102771.78;;;4.67;100.00
70015;BME280;57358;51.094;6.760;2022-11-12T04:02:50;102760.50;;;4.65;100.00
70015;BME280;57358;51.094;6.760;2022-11-12T04:05:17;102763.94;;;4.59;100.00
70015;BME280;57358;51.094;6.760;2022-11-12T04:08:05;102729.13;;;4.36;100.00
70015;BME280;57358;51.094;6.760;2022-11-12T04:10:51;102687.31;;;4.02;100.00
70015;BME280;57358;51.094;6.760;2022-11-12T04:13:18;102705.53;;;4.07;100.00
70015;BME280;57358;51.094;6.760;2022-11-12T04:16:08;102686.38;;;3.92;100.00
70015;BME280;57358;51.094;6.760;2022-11-12T04:18:56;102753.34;;;4.30;100.00
70015;BME280;57358;51.094;6.760;2022-11-12T04:21:50;102757.69;;;4.31;100.00
70015;BME280;57358;51.094;6.760;2022-11-12T04:24:34;102757.75;;;4.39;100.00
70015;BME280;57358;51.094;6.760;2022-11-12T04:27:22;102758.59;;;4.38;100.00
70015;BME280;57358;51.094;6.760;2022-11-12T04:29:50;102649.03;;;3.76;100.00
70015;BME280;57358;51.094;6.760;2022-11-12T04:32:38;102710.75;;;4.08;100.00
70015;BME280;57358;51.094;6.760;2022-11-12T04:35:07;102709.03;;;4.12;100.00
70015;BME280;57358;51.094;6.760;2022-11-12T04:37:35;102756.84;;;4.38;100.00
70015;BME280;57358;51.094;6.760;2022-11-12T04:40:22;102755.09;;;4.31;100.00
70015;BME280;57358;51.094;6.760;2022-11-12T04:43:11;102731.50;;;4.04;100.00
70015;BME280;57358;51.094;6.760;2022-11-12T04:45:56;102749.78;;;4.17;100.00
70015;BME280;57358;51.094;6.760;2022-11-12T04:48:24;102748.91;;;4.15;100.00
70015;BME280;57358;51.094;6.760;2022-11-12T04:50:56;102748.81;;;4.05;100.00
70015;BME280;57358;51.094;6.760;2022-11-12T04:53:24;102687.09;;;3.71;100.00
70015;BME280;57358;51.094;6.760;2022-11-12T04:55:51;102715.72;;;3.82;100.00
70015;BME280;57358;51.094;6.760;2022-11-12T04:58:18;102759.25;;;4.11;100.00
70015;BME280;57358;51.094;6.760;2022-11-12T05:00:45;102480.25;;;2.60;100.00
70015;BME280;57358;51.094;6.760;2022-11-12T05:03:12;102721.09;;;4.07;100.00
70015;BME280;57358;51.094;6.760;2022-11-12T05:05:38;102705.41;;;3.90;100.00
70015;BME280;57358;51.094;6.760;2022-11-12T05:08:05;102721.03;;;3.94;100.00
70015;BME280;57358;51.094;6.760;2022-11-12T05:10:32;102660.97;;;3.53;100.00
70015;BME280;57358;51.094;6.760;2022-11-12T05:12:58;102602.69;;;3.20;100.00
70015;BME280;57358;51.094;6.760;2022-11-12T05:15:25;102735.75;;;3.94;100.00
70015;BME280;57358;51.094;6.760;2022-11-12T05:17:51;102736.66;;;3.97;100.00
70015;BME280;57358;51.094;6.760;2022-11-12T05:20:18;102680.94;;;3.62;100.00
70015;BME280;57358;51.094;6.760;2022-11-12T05:22:44;102733.22;;;4.05;100.00
70015;BME280;57358;51.094;6.760;2022-11-12T05:25:30;102659.34;;;3.67;100.00
70015;BME280;57358;51.094;6.760;2022-11-12T05:27:56;102587.22;;;3.28;100.00
70015;BME280;57358;51.094;6.760;2022-11-12T05:30:23;102702.91;;;3.99;100.00
70015;BME280;57358;51.094;6.760;2022-11-12T05:32:50;102641.91;;;3.51;100.00
70015;BME280;57358;51.094;6.760;2022-11-12T05:35:16;102650.63;;;3.57;100.00
70015;BME280;57358;51.094;6.760;2022-11-12T05:37:42;102710.59;;;3.88;100.00
70015;BME280;57358;51.094;6.760;2022-11-12T05:40:09;102746.19;;;4.00;100.00
70015;BME280;57358;51.094;6.760;2022-11-12T05:42:36;102662.69;;;3.52;100.00
70015;BME280;57358;51.094;6.760;2022-11-12T05:45:02;102631.38;;;3.34;100.00
70015;BME280;57358;51.094;6.760;2022-11-12T05:47:29;102728.75;;;3.87;100.00
70015;BME280;57358;51.094;6.760;2022-11-12T05:49:55;102584.34;;;2.98;100.00
70015;BME280;57358;51.094;6.760;2022-11-12T05:52:22;102742.56;;;3.81;100.00
70015;BME280;57358;51.094;6.760;2022-11-12T05:54:48;102637.31;;;3.22;100.00
70015;BME280;57358;51.094;6.760;2022-11-12T05:57:15;102606.91;;;3.07;100.00
70015;BME280;57358;51.094;6.760;2022-11-12T05:59:41;102603.41;;;3.02;100.00
70015;BME280;57358;51.094;6.760;2022-11-12T06:02:07;102661.63;;;3.32;100.00
70015;BME280;57358;51.094;6.760;2022-11-12T06:04:34;102694.63;;;3.47;100.00
70015;BME280;57358;51.094;6.760;2022-11-12T06:07:00;102739.84;;;3.67;100.00
70015;BME280;57358;51.094;6.760;2022-11-12T06:09:29;102740.69;;;3.66;100.00
70015;BME280;57358;51.094;6.760;2022-11-12T06:11:55;102685.88;;;3.34;100.00
70015;BME280;57358;51.094;6.760;2022-11-12T06:14:22;102598.88;;;2.83;100.00
70015;BME280;57358;51.094;6.760;2022-11-12T06:16:48;102729.34;;;3.56;100.00
70015;BME280;57358;51.094;6.760;2022-11-12T06:19:15;102660.59;;;3.13;100.00
70015;BME280;57358;51.094;6.760;2022-11-12T06:21:41;102667.50;;;3.14;100.00
70015;BME280;57358;51.094;6.760;2022-11-12T06:24:08;102702.34;;;3.37;100.00
70015;BME280;57358;51.094;6.760;2022-11-12T06:26:34;102687.59;;;3.32;100.00
70015;BME280;57358;51.094;6.760;2022-11-12T06:29:03;102678.09;;;3.34;100.00
70015;BME280;57358;51.094;6.760;2022-11-12T06:31:29;102715.50;;;3.56;100.00
70015;BME280;57358;51.094;6.760;2022-11-12T06:33:55;102625.91;;;3.03;100.00
70015;BME280;57358;51.094;6.760;2022-11-12T06:36:22;102682.41;;;3.32;100.00
70015;BME280;57358;51.094;6.760;2022-11-12T06:38:48;102718.06;;;3.51;100.00
70015;BME280;57358;51.094;6.760;2022-11-12T06:41:15;102714.53;;;3.46;100.00
70015;BME280;57358;51.094;6.760;2022-11-12T06:43:41;102711.00;;;3.38;100.00
70015;BME280;57358;51.094;6.760;2022-11-12T06:46:13;102791.88;;;3.75;100.00
70015;BME280;57358;51.094;6.760;2022-11-12T06:48:40;102783.22;;;3.80;100.00
70015;BME280;57358;51.094;6.760;2022-11-12T06:51:11;102791.03;;;3.79;100.00
70015;BME280;57358;51.094;6.760;2022-11-12T06:53:40;102792.75;;;3.78;100.00
70015;BME280;57358;51.094;6.760;2022-11-12T06:56:07;102795.34;;;3.78;100.00
70015;BME280;57358;51.094;6.760;2022-11-12T06:58:34;102736.94;;;3.35;100.00
70015;BME280;57358;51.094;6.760;2022-11-12T07:01:12;102721.28;;;3.27;100.00
70015;BME280;57358;51.094;6.760;2022-11-12T07:03:39;102812.69;;;3.81;100.00
70015;BME280;57358;51.094;6.760;2022-11-12T07:06:12;102845.59;;;3.82;100.00
70015;BME280;57358;51.094;6.760;2022-11-12T07:08:40;102822.25;;;3.84;100.00
70015;BME280;57358;51.094;6.760;2022-11-12T07:11:07;102779.50;;;3.52;100.00
70015;BME280;57358;51.094;6.760;2022-11-12T07:13:34;102688.13;;;3.02;100.00
70015;BME280;57358;51.094;6.760;2022-11-12T07:16:01;102799.66;;;3.75;100.00
70015;BME280;57358;51.094;6.760;2022-11-12T07:18:29;102809.31;;;3.93;100.00
70015;BME280;57358;51.094;6.760;2022-11-12T07:20:57;102810.25;;;3.98;100.00
70015;BME280;57358;51.094;6.760;2022-11-12T07:23:24;102785.78;;;3.74;100.00
70015;BME280;57358;51.094;6.760;2022-11-12T07:26:18;102815.53;;;4.09;100.00
70015;BME280;57358;51.094;6.760;2022-11-12T07:28:47;102815.59;;;4.13;100.00
70015;BME280;57358;51.094;6.760;2022-11-12T07:31:15;102766.88;;;3.88;100.00
70015;BME280;57358;51.094;6.760;2022-11-12T07:33:42;102655.50;;;3.24;100.00
70015;BME280;57358;51.094;6.760;2022-11-12T07:36:11;102813.88;;;4.18;100.00
70015;BME280;57358;51.094;6.760;2022-11-12T07:38:39;102749.53;;;3.85;100.00
70015;BME280;57358;51.094;6.760;2022-11-12T07:41:21;102787.00;;;4.15;100.00
70015;BME280;57358;51.094;6.760;2022-11-12T07:43:49;102818.34;;;4.35;100.00
70015;BME280;57358;51.094;6.760;2022-11-12T07:46:21;102817.53;;;4.40;100.00
70015;BME280;57358;51.094;6.760;2022-11-12T07:48:48;102836.66;;;4.49;100.00
70015;BME280;57358;51.094;6.760;2022-11-12T07:51:17;102811.53;;;4.51;100.00
70015;BME280;57358;51.094;6.760;2022-11-12T07:53:44;102762.88;;;4.30;100.00
70015;BME280;57358;51.094;6.760;2022-11-12T07:56:16;102701.16;;;4.03;100.00
70015;BME280;57358;51.094;6.760;2022-11-12T07:58:43;102767.34;;;4.51;100.00
70015;BME280;57358;51.094;6.760;2022-11-12T08:01:32;102814.41;;;4.89;100.00
70015;BME280;57358;51.094;6.760;2022-11-12T08:04:00;102814.44;;;4.98;100.00
70015;BME280;57358;51.094;6.760;2022-11-12T08:06:28;102796.28;;;5.09;100.00
70015;BME280;57358;51.094;6.760;2022-11-12T08:08:56;102731.06;;;4.74;100.00
70015;BME280;57358;51.094;6.760;2022-11-12T08:11:23;102807.66;;;5.30;100.00
70015;BME280;57358;51.094;6.760;2022-11-12T08:13:50;102786.84;;;5.31;100.00
70015;BME280;57358;51.094;6.760;2022-11-12T08:16:16;102684.31;;;4.83;100.00
70015;BME280;57358;51.094;6.760;2022-11-12T08:18:43;102698.22;;;5.00;100.00
70015;BME280;57358;51.094;6.760;2022-11-12T08:21:14;102736.50;;;5.34;100.00
70015;BME280;57358;51.094;6.760;2022-11-12T08:23:41;102776.50;;;5.68;100.00
70015;BME280;57358;51.094;6.760;2022-11-12T08:26:11;102704.38;;;5.41;100.00
70015;BME280;57358;51.094;6.760;2022-11-12T08:28:38;102689.66;;;5.65;100.00
70015;BME280;57358;51.094;6.760;2022-11-12T08:31:10;102764.38;;;6.15;100.00
70015;BME280;57358;51.094;6.760;2022-11-12T08:33:37;102761.78;;;6.24;100.00
70015;BME280;57358;51.094;6.760;2022-11-12T08:36:06;102682.75;;;5.97;100.00
70015;BME280;57358;51.094;6.760;2022-11-12T08:38:33;102660.16;;;5.96;100.00
70015;BME280;57358;51.094;6.760;2022-11-12T08:41:01;102734.78;;;6.56;100.00
70015;BME280;57358;51.094;6.760;2022-11-12T08:43:27;102711.31;;;6.50;100.00
70015;BME280;57358;51.094;6.760;2022-11-12T08:45:57;102529.03;;;5.60;100.00
70015;BME280;57358;51.094;6.760;2022-11-12T08:48:26;102657.41;;;6.49;100.00
70015;BME280;57358;51.094;6.760;2022-11-12T08:50:53;102630.47;;;6.47;100.00
70015;BME280;57358;51.094;6.760;2022-11-12T08:53:21;102752.84;;;7.11;100.00
70015;BME280;57358;51.094;6.760;2022-11-12T08:55:51;102730.16;;;7.21;100.00
70015;BME280;57358;51.094;6.760;2022-11-12T08:58:19;102676.31;;;6.97;100.00
70015;BME280;57358;51.094;6.760;2022-11-12T09:00:45;102649.44;;;6.84;100.00
70015;BME280;57358;51.094;6.760;2022-11-12T09:03:14;102643.34;;;6.84;100.00
70015;BME280;57358;51.094;6.760;2022-11-12T09:05:40;102741.31;;;7.52;100.00
70015;BME280;57358;51.094;6.760;2022-11-12T09:08:12;102760.38;;;7.67;100.00
70015;BME280;57358;51.094;6.760;2022-11-12T09:10:42;102752.44;;;7.79;100.00
70015;BME280;57358;51.094;6.760;2022-11-12T09:13:09;102755.03;;;7.82;100.00
70015;BME280;57358;51.094;6.760;2022-11-12T09:15:35;102768.06;;;7.84;100.00
70015;BME280;57358;51.094;6.760;2022-11-12T09:18:10;102708.94;;;7.69;100.00
70015;BME280;57358;51.094;6.760;2022-11-12T09:20:37;102602.19;;;7.19;100.00
70015;BME280;57358;51.094;6.760;2022-11-12T09:23:09;102756.41;;;8.22;100.00
70015;BME280;57358;51.094;6.760;2022-11-12T09:25:36;102720.84;;;8.07;100.00
70015;BME280;57358;51.094;6.760;2022-11-12T09:28:11;102714.69;;;8.11;100.00
70015;BME280;57358;51.094;6.760;2022-11-12T09:30:42;102730.97;;;8.37;100.00
70015;BME280;57358;51.094;6.760;2022-11-12T09:33:08;102761.41;;;8.54;100.00
70015;BME280;57358;51.094;6.760;2022-11-12T09:35:35;102760.41;;;8.64;100.00
70015;BME280;57358;51.094;6.760;2022-11-12T09:38:01;102746.47;;;8.62;100.00
70015;BME280;57358;51.094;6.760;2022-11-12T09:43:23;102712.63;;;8.47;100.00
70015;BME280;57358;51.094;6.760;2022-11-12T09:45:51;102755.75;;;8.89;100.00
70015;BME280;57358;51.094;6.760;2022-11-12T09:48:43;102757.25;;;9.09;100.00
70015;BME280;57358;51.094;6.760;2022-11-12T09:51:20;102762.34;;;9.21;100.00
70015;BME280;57358;51.094;6.760;2022-11-12T09:54:05;102746.53;;;9.27;100.00
70015;BME280;57358;51.094;6.760;2022-11-12T09:56:36;102523.72;;;8.17;100.00
70015;BME280;57358;51.094;6.760;2022-11-12T09:59:02;102538.16;;;8.47;100.00
70015;BME280;57358;51.094;6.760;2022-11-12T10:01:56;102717.22;;;9.59;100.00
70015;BME280;57358;51.094;6.760;2022-11-12T10:07:35;102747.16;;;10.01;96.70
70015;BME280;57358;51.094;6.760;2022-11-12T10:10:13;102741.72;;;10.13;96.54
70015;BME280;57358;51.094;6.760;2022-11-12T10:15:37;102712.16;;;10.02;94.81
70015;BME280;57358;51.094;6.760;2022-11-12T10:19:02;102690.22;;;10.07;93.73
70015;BME280;57358;51.094;6.760;2022-11-12T10:21:38;102619.06;;;9.76;93.46
70015;BME280;57358;51.094;6.760;2022-11-12T10:24:07;102710.44;;;10.50;92.61
70015;BME280;57358;51.094;6.760;2022-11-12T10:26:37;102723.25;;;10.66;92.59
70015;BME280;57358;51.094;6.760;2022-11-12T10:29:15;102689.50;;;10.47;92.08
70015;BME280;57358;51.094;6.760;2022-11-12T10:31:47;102644.38;;;10.25;92.29
70015;BME280;57358;51.094;6.760;2022-11-12T10:37:14;102687.81;;;10.87;90.64
70015;BME280;57358;51.094;6.760;2022-11-12T10:39:44;102691.09;;;10.96;89.29
70015;BME280;57358;51.094;6.760;2022-11-12T10:42:15;102626.78;;;10.74;88.82
70015;BME280;57358;51.094;6.760;2022-11-12T10:44:41;102657.78;;;10.98;89.56
70015;BME280;57358;51.094;6.760;2022-11-12T10:47:32;102669.59;;;11.18;89.73
70015;BME280;57358;51.094;6.760;2022-11-12T10:52:34;102659.75;;;11.26;89.33
70015;BME280;57358;51.094;6.760;2022-11-12T10:55:26;102623.38;;;11.09;89.47
70015;BME280;57358;51.094;6.760;2022-11-12T10:58:10;102675.13;;;11.43;88.77
70015;BME280;57358;51.094;6.760;2022-11-12T11:01:05;102490.16;;;10.40;88.62
70015;BME280;57358;51.094;6.760;2022-11-12T11:03:34;102640.63;;;11.21;88.58
70015;BME280;57358;51.094;6.760;2022-11-12T11:06:06;102656.41;;;11.57;88.57
70015;BME280;57358;51.094;6.760;2022-11-12T11:08:49;102652.59;;;11.69;88.22
70015;BME280;57358;51.094;6.760;2022-11-12T11:11:17;102657.41;;;11.86;86.86
70015;BME280;57358;51.094;6.760;2022-11-12T11:13:46;102643.31;;;11.90;85.72
70015;BME280;57358;51.094;6.760;2022-11-12T11:16:25;102637.03;;;11.95;85.79
70015;BME280;57358;51.094;6.760;2022-11-12T11:18:58;102592.47;;;11.89;84.56
70015;BME280;57358;51.094;6.760;2022-11-12T11:21:33;102595.94;;;11.88;84.45
70015;BME280;57358;51.094;6.760;2022-11-12T11:27:08;102633.31;;;12.34;83.09
70015;BME280;57358;51.094;6.760;2022-11-12T11:29:47;102632.19;;;12.43;83.68
70015;BME280;57358;51.094;6.760;2022-11-12T11:35:13;102618.94;;;12.75;81.27
70015;BME280;57358;51.094;6.760;2022-11-12T11:37:55;102533.22;;;12.35;81.07
70015;BME280;57358;51.094;6.760;2022-11-12T11:40:29;102588.13;;;12.77;80.61
70015;BME280;57358;51.094;6.760;2022-11-12T11:43:04;102595.25;;;13.02;80.32
70015;BME280;57358;51.094;6.760;2022-11-12T11:56:43;102578.16;;;13.42;78.56
70015;BME280;57358;51.094;6.760;2022-11-12T11:59:19;102557.91;;;13.43;77.61
70015;BME280;57358;51.094;6.760;2022-11-12T12:04:48;102563.09;;;13.46;76.87
70015;BME280;57358;51.094;6.760;2022-11-12T12:07:36;102562.97;;;13.49;76.95
70015;BME280;57358;51.094;6.760;2022-11-12T12:20:56;102494.75;;;13.40;77.60
70015;BME280;57358;51.094;6.760;2022-11-12T12:23:30;102477.13;;;13.40;77.55
70015;BME280;57358;51.094;6.760;2022-11-12T12:26:00;102535.41;;;13.83;77.23
70015;BME280;57358;51.094;6.760;2022-11-12T12:28:52;102537.88;;;13.87;77.60
70015;BME280;57358;51.094;6.760;2022-11-12T12:31:24;102526.91;;;13.74;77.38
70015;BME280;57358;51.094;6.760;2022-11-12T12:33:55;102519.91;;;13.73;76.83
70015;BME280;57358;51.094;6.760;2022-11-12T12:36:24;102528.22;;;13.86;77.97
70015;BME280;57358;51.094;6.760;2022-11-12T12:41:23;102520.22;;;13.89;78.24
70015;BME280;57358;51.094;6.760;2022-11-12T12:43:56;102360.72;;;13.01;77.71
70015;BME280;57358;51.094;6.760;2022-11-12T12:46:26;102518.25;;;13.94;77.77
70015;BME280;57358;51.094;6.760;2022-11-12T12:48:57;102520.38;;;14.08;76.25
70015;BME280;57358;51.094;6.760;2022-11-12T12:51:29;102423.50;;;13.41;76.49
70015;BME280;57358;51.094;6.760;2022-11-12T12:53:56;102525.88;;;14.02;76.22
70015;BME280;57358;51.094;6.760;2022-11-12T12:58:49;102523.34;;;14.23;76.39
70015;BME280;57358;51.094;6.760;2022-11-12T13:04:04;102516.72;;;14.34;76.45
70015;BME280;57358;51.094;6.760;2022-11-12T13:06:37;102216.59;;;12.55;76.33
70015;BME280;57358;51.094;6.760;2022-11-12T13:19:37;102516.94;;;14.30;77.64
70015;BME280;57358;51.094;6.760;2022-11-12T13:25:23;102461.63;;;14.03;76.26
70015;BME280;57358;51.094;6.760;2022-11-12T13:43:25;102507.41;;;14.02;78.50
70015;BME280;57358;51.094;6.760;2022-11-12T13:45:58;102470.91;;;13.66;80.04
70015;BME280;57358;51.094;6.760;2022-11-12T13:48:42;102502.06;;;13.80;79.68
70015;BME280;57358;51.094;6.760;2022-11-12T13:53:39;102500.44;;;13.52;80.77
70015;BME280;57358;51.094;6.760;2022-11-12T13:56:09;102518.84;;;13.54;81.86
70015;BME280;57358;51.094;6.760;2022-11-12T13:58:37;102485.03;;;13.15;83.30
70015;BME280;57358;51.094;6.760;2022-11-12T14:01:06;102435.31;;;12.77;83.90
70015;BME280;57358;51.094;6.760;2022-11-12T14:03:45;102541.53;;;13.33;84.44
70015;BME280;57358;51.094;6.760;2022-11-12T14:06:30;102509.75;;;13.11;86.01
70015;BME280;57358;51.094;6.760;2022-11-12T14:09:24;102542.13;;;13.14;86.30
70015;BME280;57358;51.094;6.760;2022-11-12T14:15:01;102552.28;;;13.00;87.64
70015;BME280;57358;51.094;6.760;2022-11-12T14:17:45;102526.19;;;12.64;89.03
70015;BME280;57358;51.094;6.760;2022-11-12T14:20:24;102513.94;;;12.63;89.11
70015;BME280;57358;51.094;6.760;2022-11-12T14:22:54;102500.09;;;12.56;89.39
70015;BME280;57358;51.094;6.760;2022-11-12T14:25:25;102490.88;;;12.43;89.68
70015;BME280;57358;51.094;6.760;2022-11-12T14:27:54;102579.03;;;12.88;89.84
70015;BME280;57358;51.094;6.760;2022-11-12T14:30:28;102549.66;;;12.72;90.32
70015;BME280;57358;51.094;6.760;2022-11-12T14:32:59;102489.31;;;12.36;91.18
70015;BME280;57358;51.094;6.760;2022-11-12T14:37:56;102501.34;;;12.45;91.27
70015;BME280;57358;51.094;6.760;2022-11-12T14:40:25;102517.69;;;12.56;91.15